METAR Data
IDs: Format: Raw Decoded Include TAF

Data at: 1628 UTC 03 Dec 2021

KBDN 031615Z AUTO 22003KT 10SM CLR 01/M01 A3021 RMK AO2
KBDN 031555Z AUTO 20003KT 10SM CLR M00/M02 A3021 RMK AO2
KBDN 031535Z AUTO 16003KT 10SM CLR M01/M02 A3021 RMK AO2
KBDN 031515Z AUTO 00000KT 10SM CLR M00/M02 A3021 RMK AO2
KBDN 031455Z AUTO 00000KT 10SM CLR M00/M02 A3021 RMK AO2
KBDN 031435Z AUTO 00000KT 10SM CLR M00/M02 A3021 RMK AO2
KBDN 031415Z AUTO 15006KT 10SM CLR 01/M01 A3020 RMK AO2
KBDN 031355Z AUTO 14009KT 10SM CLR 01/M01 A3019 RMK AO2
KBDN 031335Z AUTO 14005KT 10SM CLR 00/M01 A3020 RMK AO2
KBDN 031315Z AUTO 00000KT 10SM CLR 00/M01 A3020 RMK AO2
KBDN 031255Z AUTO 13004KT 10SM CLR 01/M01 A3020 RMK AO2
KBDN 031235Z AUTO 13004KT 10SM CLR 01/M01 A3020 RMK AO2
KBDN 031215Z AUTO 00000KT 10SM CLR 01/M01 A3020 RMK AO2
KBDN 031155Z AUTO 00000KT 10SM CLR 01/M01 A3020 RMK AO2
KBDN 031135Z AUTO 16003KT 10SM CLR 01/M01 A3020 RMK AO2
KBDN 031115Z AUTO 00000KT 10SM CLR 01/M01 A3021 RMK AO2
KBDN 031055Z AUTO 17003KT 10SM CLR 02/M01 A3022 RMK AO2
KBDN 031035Z AUTO 15004KT 10SM CLR 01/M01 A3022 RMK AO2
KBDN 031015Z AUTO 13005KT 10SM CLR 01/M00 A3023 RMK AO2
KBDN 030955Z AUTO 13006KT 10SM CLR 01/M01 A3022 RMK AO2
KBDN 030935Z AUTO 15003KT 10SM CLR 01/M00 A3022 RMK AO2
KBDN 030915Z AUTO 13004KT 10SM CLR 00/M01 A3022 RMK AO2
KBDN 030855Z AUTO 00000KT 10SM CLR 00/M01 A3022 RMK AO2
KBDN 030835Z AUTO 17004KT 10SM CLR M00/M01 A3022 RMK AO2
KBDN 030815Z AUTO 00000KT 10SM CLR 00/M01 A3022 RMK AO2
KBDN 030755Z AUTO 17003KT 10SM CLR 00/M01 A3023 RMK AO2
KBDN 030735Z AUTO 20005KT 10SM CLR 01/M00 A3023 RMK AO2
KBDN 030715Z AUTO 20004KT 10SM CLR 01/M01 A3023 RMK AO2
KBDN 030655Z AUTO 00000KT 10SM CLR 01/M01 A3024 RMK AO2
KBDN 030635Z AUTO 19003KT 10SM CLR 01/M00 A3024 RMK AO2
KBDN 030615Z AUTO 00000KT 10SM CLR 02/M00 A3024 RMK AO2
KBDN 030555Z AUTO 20006KT 10SM CLR 02/00 A3024 RMK AO2
KBDN 030535Z AUTO 21005KT 10SM CLR 02/00 A3024 RMK AO2
KBDN 030515Z AUTO 00000KT 10SM CLR 03/01 A3024 RMK AO2
KBDN 030455Z AUTO 00000KT 10SM CLR 02/00 A3024 RMK AO2
KBDN 030435Z AUTO 00000KT 10SM CLR 03/01 A3024 RMK AO2
KBDN 030415Z AUTO 23006KT 10SM CLR 04/01 A3023 RMK AO2
KBDN 030355Z AUTO 23006KT 10SM CLR 04/01 A3023 RMK AO2
KBDN 030335Z AUTO 22003KT 10SM CLR 04/01 A3023 RMK AO2
KBDN 030315Z AUTO 00000KT 10SM CLR 04/02 A3023 RMK AO2
KBDN 030250Z AUTO 21004KT 10SM CLR 05/02 A3023 RMK AO2
KBDN 030235Z AUTO 19003KT 10SM CLR 05/01 A3022 RMK AO2
KBDN 030215Z AUTO 00000KT 10SM CLR 06/02 A3022 RMK AO2
KBDN 030155Z AUTO 00000KT 10SM CLR 06/02 A3022 RMK AO2
KBDN 030135Z AUTO 00000KT 10SM CLR 07/02 A3022 RMK AO2
KBDN 030115Z AUTO 34003KT 10SM CLR 09/03 A3022 RMK AO2
KBDN 030055Z AUTO 35005KT 10SM CLR 10/03 A3022 RMK AO2
KBDN 030035Z AUTO 35006KT 10SM CLR 10/03 A3021 RMK AO2
KBDN 030015Z AUTO 01003KT 10SM CLR 11/03 A3021 RMK AO2
KBDN 022355Z AUTO 01004KT 10SM CLR 13/03 A3021 RMK AO2
KBDN 022335Z AUTO 02007KT 10SM CLR 13/02 A3020 RMK AO2
KBDN 022315Z AUTO 02005KT 10SM CLR 14/01 A3019 RMK AO2
KBDN 022255Z AUTO 01006KT 10SM CLR 14/01 A3019 RMK AO2
KBDN 022235Z AUTO 01005KT 10SM CLR 14/01 A3019 RMK AO2
KBDN 022215Z AUTO 02005KT 10SM CLR 13/01 A3018 RMK AO2
KBDN 022155Z AUTO 02005KT 10SM CLR 14/01 A3018 RMK AO2
KBDN 022135Z AUTO VRB05KT 10SM CLR 14/02 A3019 RMK AO2
KBDN 022115Z AUTO 05004KT 10SM CLR 13/02 A3019 RMK AO2
KBDN 022055Z AUTO 05005KT 10SM CLR 14/02 A3020 RMK AO2
KBDN 022035Z AUTO 04003KT 10SM CLR 14/03 A3021 RMK AO2
KBDN 022015Z AUTO 00000KT 10SM CLR 12/03 A3022 RMK AO2
KBDN 021955Z AUTO 05005KT 10SM CLR 12/03 A3022 RMK AO2
KBDN 021935Z AUTO VRB05KT 10SM CLR 12/03 A3023 RMK AO2
KBDN 021915Z AUTO 05006KT 10SM CLR 12/03 A3023 RMK AO2
KBDN 021855Z AUTO 04006KT 10SM CLR 12/04 A3024 RMK AO2
KBDN 021835Z AUTO 02006KT 10SM CLR 12/04 A3024 RMK AO2
KBDN 021815Z AUTO 36006KT 10SM CLR 11/04 A3025 RMK AO2
KBDN 021755Z AUTO 02006KT 10SM CLR 11/05 A3024 RMK AO2
KBDN 021735Z AUTO 02005KT 10SM CLR 10/05 A3023 RMK AO2
KBDN 021715Z AUTO 01006KT 10SM CLR 10/05 A3023 RMK AO2
KBDN 021655Z AUTO 35005KT 10SM CLR 10/06 A3021 RMK AO2
KBDN 021635Z AUTO VRB03KT 10SM CLR 09/05 A3020 RMK AO2
KBDN 021615Z AUTO 24004KT 10SM CLR 09/06 A3020 RMK AO2
KBDN 021555Z AUTO 30008KT 10SM CLR 07/05 A3020 RMK AO2
KBDN 021535Z AUTO 19003KT 10SM CLR 05/04 A3019 RMK AO2
KBDN 021515Z AUTO VRB05KT 10SM CLR 04/03 A3019 RMK AO2
KBDN 021455Z AUTO 00000KT 10SM CLR 05/03 A3017 RMK AO2
KBDN 021435Z AUTO 00000KT 10SM CLR 05/03 A3016 RMK AO2
KBDN 021415Z AUTO 15005KT 10SM CLR 04/03 A3016 RMK AO2
KBDN 021355Z AUTO 20003KT 10SM CLR 05/03 A3017 RMK AO2
KBDN 021335Z AUTO 21004KT 10SM CLR 07/04 A3017 RMK AO2
KBDN 021315Z AUTO 21007KT 10SM CLR 08/05 A3017 RMK AO2
KBDN 021255Z AUTO 23005KT 10SM CLR 05/03 A3017 RMK AO2
KBDN 021235Z AUTO 00000KT 10SM CLR 05/03 A3017 RMK AO2
KBDN 021215Z AUTO 01005KT 10SM CLR 06/04 A3017 RMK AO2
KBDN 021155Z AUTO 00000KT 10SM CLR 05/03 A3016 RMK AO2
KBDN 021135Z AUTO 18003KT 10SM CLR 06/04 A3017 RMK AO2
KBDN 021115Z AUTO 17007KT 10SM CLR 06/04 A3017 RMK AO2
KBDN 021055Z AUTO 17005KT 10SM CLR 05/03 A3018 RMK AO2
KBDN 021035Z AUTO 17005KT 10SM CLR 05/03 A3019 RMK AO2
KBDN 021015Z AUTO 16005KT 10SM CLR 05/03 A3018 RMK AO2
KBDN 020955Z AUTO VRB04KT 10SM CLR 05/03 A3018 RMK AO2
KBDN 020935Z AUTO 00000KT 10SM CLR 05/03 A3018 RMK AO2
KBDN 020915Z AUTO 00000KT 10SM CLR 05/03 A3018 RMK AO2
KBDN 020855Z AUTO 00000KT 10SM CLR 05/03 A3018 RMK AO2
KBDN 020835Z AUTO 00000KT 10SM CLR 05/03 A3019 RMK AO2
KBDN 020815Z AUTO 18004KT 10SM CLR 07/03 A3019 RMK AO2
KBDN 020755Z AUTO 20005KT 10SM CLR 08/04 A3020 RMK AO2
KBDN 020735Z AUTO 19005KT 10SM CLR 08/04 A3020 RMK AO2
KBDN 020715Z AUTO 22005KT 10SM CLR 08/04 A3021 RMK AO2
KBDN 020650Z AUTO 00000KT 10SM CLR 08/05 A3020 RMK AO2
KBDN 020635Z AUTO 00000KT 10SM CLR 08/05 A3020 RMK AO2
KBDN 020615Z AUTO 16004KT 10SM CLR 09/05 A3020 RMK AO2
KBDN 020550Z AUTO 18005KT 10SM CLR 08/05 A3020 RMK AO2
KBDN 020535Z AUTO 20003KT 10SM CLR 08/05 A3019 RMK AO2
KBDN 020515Z AUTO 00000KT 10SM CLR 08/05 A3019 RMK AO2
KBDN 020455Z AUTO 01005KT 10SM CLR 08/04 A3019 RMK AO2
KBDN 020435Z AUTO 20003KT 10SM CLR 09/05 A3018 RMK AO2